JST578 YBSU-YBHM
Flight info
| Callsign | JST578 |
|---|---|
| Flight time | 1h 15m |
| Altitude | 32000 |
| Route | SU DCT TAPET Q67 OVRON |
| Aircraft | A320/M-SDE3FGHIRWY/LB1 |
Departure
| Time | 2026-05-04 06:25 |
|---|---|
| Airport | Sunshine Coast Airport (YBSU) |
Arrival
| Time | 2026-05-04 07:40 |
|---|---|
| Airport | Hamilton Island Airport (YBHM) |
| Time | Latitude | Longitude | Altitude | Speed | Heading |
|---|---|---|---|---|---|
| 2026-05-04 06:06 | -26.60480 | 153.08913 | 22 ft | 0 kts | 232° |
| 2026-05-04 06:16 | -26.60470 | 153.08928 | 24 ft | 3 kts | 232° |
| 2026-05-04 06:16 | -26.60458 | 153.08948 | 21 ft | 3 kts | 255° |
| 2026-05-04 06:16 | -26.60458 | 153.08969 | 21 ft | 3 kts | 304° |
| 2026-05-04 06:17 | -26.60469 | 153.08983 | 24 ft | 1 kts | 323° |
| 2026-05-04 06:17 | -26.60472 | 153.08986 | 23 ft | 0 kts | 323° |
| 2026-05-04 06:20 | -26.59721 | 153.08424 | 22 ft | 36 kts | 322° |
| 2026-05-04 06:20 | -26.59522 | 153.08256 | 22 ft | 31 kts | 324° |
| 2026-05-04 06:21 | -26.59186 | 153.08203 | 20 ft | 29 kts | 322° |
| 2026-05-04 06:21 | -26.58998 | 153.08044 | 24 ft | 38 kts | 322° |
| 2026-05-04 06:22 | -26.58764 | 153.07845 | 25 ft | 45 kts | 323° |
| 2026-05-04 06:22 | -26.58512 | 153.07630 | 22 ft | 43 kts | 322° |
| 2026-05-04 06:25 | -26.66353 | 153.15410 | 2897 ft | 250 kts | 130° |
| 2026-05-04 06:25 | -26.67520 | 153.16895 | 3671 ft | 256 kts | 131° |
| 2026-05-04 06:26 | -26.68714 | 153.18395 | 4535 ft | 259 kts | 131° |
| 2026-05-04 06:26 | -26.69920 | 153.19915 | 5361 ft | 264 kts | 131° |
| 2026-05-04 06:26 | -26.71051 | 153.21547 | 6153 ft | 269 kts | 117° |
| 2026-05-04 06:26 | -26.71569 | 153.23560 | 6890 ft | 274 kts | 93° |
| 2026-05-04 06:27 | -26.66586 | 153.29143 | 9825 ft | 291 kts | 5° |
| 2026-05-04 06:28 | -26.64557 | 153.29034 | 10478 ft | 295 kts | 348° |
| 2026-05-04 06:28 | -26.62564 | 153.28249 | 10677 ft | 316 kts | 330° |
| 2026-05-04 06:28 | -26.60688 | 153.26825 | 10883 ft | 334 kts | 324° |
| 2026-05-04 06:28 | -26.58781 | 153.25306 | 11431 ft | 339 kts | 324° |
| 2026-05-04 06:29 | -26.56849 | 153.23768 | 12022 ft | 342 kts | 324° |
| 2026-05-04 06:29 | -26.54900 | 153.22223 | 12639 ft | 345 kts | 324° |
| 2026-05-04 06:29 | -26.52884 | 153.20772 | 13238 ft | 347 kts | 332° |
| 2026-05-04 06:29 | -26.50618 | 153.19803 | 13809 ft | 351 kts | 345° |
| 2026-05-04 06:30 | -26.48198 | 153.19355 | 14326 ft | 354 kts | 351° |
| 2026-05-04 06:30 | -26.45748 | 153.18991 | 14852 ft | 356 kts | 350° |
| 2026-05-04 06:30 | -26.43285 | 153.18615 | 15378 ft | 358 kts | 349° |
| 2026-05-04 06:30 | -26.40814 | 153.18232 | 15911 ft | 359 kts | 349° |
| 2026-05-04 06:31 | -26.38329 | 153.17838 | 16427 ft | 361 kts | 347° |
| 2026-05-04 06:31 | -26.35915 | 153.17103 | 16936 ft | 359 kts | 336° |
| 2026-05-04 06:31 | -26.33692 | 153.15844 | 17448 ft | 358 kts | 325° |
| 2026-05-04 06:31 | -26.31693 | 153.14189 | 17962 ft | 359 kts | 320° |
| 2026-05-04 06:32 | -26.29707 | 153.12486 | 18486 ft | 360 kts | 321° |
| 2026-05-04 06:33 | -26.15583 | 153.00470 | 21644 ft | 372 kts | 320° |
| 2026-05-04 06:34 | -26.13524 | 152.98716 | 22087 ft | 374 kts | 320° |
| 2026-05-04 06:34 | -26.11453 | 152.96957 | 22502 ft | 376 kts | 319° |
| 2026-05-04 06:34 | -26.09361 | 152.95204 | 22920 ft | 378 kts | 320° |
| 2026-05-04 06:34 | -26.07230 | 152.93475 | 23344 ft | 380 kts | 321° |
| 2026-05-04 06:35 | -26.05074 | 152.91756 | 23735 ft | 382 kts | 321° |
| 2026-05-04 06:36 | -25.89742 | 152.79522 | 26107 ft | 393 kts | 320° |
| 2026-05-04 06:37 | -25.87520 | 152.77738 | 26426 ft | 395 kts | 320° |
| 2026-05-04 06:37 | -25.85288 | 152.75946 | 26750 ft | 397 kts | 320° |
| 2026-05-04 06:37 | -25.83045 | 152.74147 | 27070 ft | 398 kts | 320° |
| 2026-05-04 06:37 | -25.80791 | 152.72342 | 27379 ft | 400 kts | 320° |
| 2026-05-04 06:38 | -25.78528 | 152.70534 | 27693 ft | 402 kts | 320° |
| 2026-05-04 06:38 | -25.76282 | 152.68745 | 28008 ft | 404 kts | 320° |
| 2026-05-04 06:40 | -25.60133 | 152.55876 | 30503 ft | 408 kts | 319° |
| 2026-05-04 06:40 | -25.57831 | 152.54046 | 30877 ft | 407 kts | 319° |
| 2026-05-04 06:40 | -25.55535 | 152.52223 | 31265 ft | 405 kts | 319° |
| 2026-05-04 06:40 | -25.53245 | 152.50412 | 31668 ft | 404 kts | 319° |
| 2026-05-04 06:41 | -25.50962 | 152.48606 | 31967 ft | 403 kts | 319° |
| 2026-05-04 06:41 | -25.48688 | 152.46803 | 32044 ft | 402 kts | 319° |
| 2026-05-04 06:41 | -25.44153 | 152.43197 | 32051 ft | 400 kts | 319° |
| 2026-05-04 06:42 | -25.39634 | 152.39604 | 32048 ft | 400 kts | 319° |
| 2026-05-04 06:44 | -25.21514 | 152.25284 | 32036 ft | 401 kts | 319° |
| 2026-05-04 06:44 | -25.17000 | 152.21721 | 32040 ft | 401 kts | 319° |
| 2026-05-04 06:45 | -25.12451 | 152.18138 | 32048 ft | 402 kts | 319° |
| 2026-05-04 06:45 | -25.07900 | 152.14559 | 32049 ft | 402 kts | 319° |
| 2026-05-04 06:46 | -25.03342 | 152.10984 | 32053 ft | 402 kts | 319° |
| 2026-05-04 06:46 | -24.98788 | 152.07407 | 32049 ft | 402 kts | 319° |
| 2026-05-04 06:48 | -24.80535 | 151.93150 | 32055 ft | 402 kts | 319° |
| 2026-05-04 06:50 | -24.62333 | 151.78955 | 32057 ft | 401 kts | 319° |
| 2026-05-04 06:51 | -24.58515 | 151.75986 | 32043 ft | 402 kts | 319° |
| 2026-05-04 06:51 | -24.53953 | 151.72434 | 32044 ft | 402 kts | 319° |
| 2026-05-04 06:52 | -24.49381 | 151.68888 | 32048 ft | 402 kts | 319° |
| 2026-05-04 06:52 | -24.44833 | 151.65368 | 32050 ft | 402 kts | 319° |
| 2026-05-04 06:53 | -24.40257 | 151.61826 | 32056 ft | 402 kts | 319° |
| 2026-05-04 06:53 | -24.35679 | 151.58285 | 32056 ft | 402 kts | 320° |
| 2026-05-04 06:54 | -24.31109 | 151.54754 | 32059 ft | 402 kts | 319° |
| 2026-05-04 06:54 | -24.26536 | 151.51222 | 32043 ft | 402 kts | 320° |
| 2026-05-04 06:55 | -24.21962 | 151.47688 | 32045 ft | 402 kts | 320° |
| 2026-05-04 06:55 | -24.17380 | 151.44158 | 32046 ft | 403 kts | 320° |
| 2026-05-04 06:57 | -23.99036 | 151.30051 | 32056 ft | 402 kts | 320° |
| 2026-05-04 06:58 | -23.94483 | 151.26556 | 32039 ft | 402 kts | 320° |
| 2026-05-04 06:58 | -23.89897 | 151.23030 | 32026 ft | 403 kts | 320° |
| 2026-05-04 06:59 | -23.85278 | 151.19543 | 32030 ft | 405 kts | 322° |
| 2026-05-04 06:59 | -23.80446 | 151.16362 | 32034 ft | 407 kts | 325° |
| 2026-05-04 07:01 | -23.60860 | 151.03966 | 32037 ft | 407 kts | 324° |
| 2026-05-04 07:02 | -23.55984 | 151.00834 | 32044 ft | 407 kts | 324° |
| 2026-05-04 07:02 | -23.51103 | 150.97710 | 32047 ft | 407 kts | 324° |
| 2026-05-04 07:03 | -23.46219 | 150.94596 | 32050 ft | 407 kts | 324° |
| 2026-05-04 07:03 | -23.41335 | 150.91477 | 32055 ft | 407 kts | 324° |
| 2026-05-04 07:04 | -23.36447 | 150.88364 | 32057 ft | 407 kts | 324° |
| 2026-05-04 07:04 | -23.31562 | 150.85252 | 32057 ft | 407 kts | 324° |
| 2026-05-04 07:05 | -23.26705 | 150.82157 | 32039 ft | 407 kts | 324° |
| 2026-05-04 07:05 | -23.21760 | 150.78998 | 32043 ft | 420 kts | 324° |
| 2026-05-04 07:06 | -23.16620 | 150.75716 | 32044 ft | 436 kts | 325° |
| 2026-05-04 07:06 | -23.13984 | 150.74040 | 32045 ft | 441 kts | 325° |
| 2026-05-04 07:07 | -23.08680 | 150.70678 | 32047 ft | 442 kts | 325° |
| 2026-05-04 07:08 | -22.90152 | 150.58964 | 33523 ft | 423 kts | 325° |
| 2026-05-04 07:09 | -22.87620 | 150.57371 | 34111 ft | 418 kts | 325° |
| 2026-05-04 07:09 | -22.85113 | 150.55788 | 34521 ft | 416 kts | 324° |
| 2026-05-04 07:09 | -22.82622 | 150.54206 | 34930 ft | 414 kts | 324° |
| 2026-05-04 07:09 | -22.80145 | 150.52633 | 35322 ft | 411 kts | 324° |
| 2026-05-04 07:10 | -22.77682 | 150.51073 | 35671 ft | 409 kts | 323° |
| 2026-05-04 07:10 | -22.75228 | 150.49519 | 35972 ft | 408 kts | 323° |
| 2026-05-04 07:12 | -22.58136 | 150.38754 | 36038 ft | 406 kts | 324° |
| 2026-05-04 07:12 | -22.53246 | 150.35677 | 36041 ft | 406 kts | 323° |
| 2026-05-04 07:13 | -22.48359 | 150.32604 | 36048 ft | 407 kts | 324° |
| 2026-05-04 07:13 | -22.43488 | 150.29545 | 36052 ft | 407 kts | 324° |
| 2026-05-04 07:14 | -22.31224 | 150.21859 | 36038 ft | 408 kts | 324° |
| 2026-05-04 07:15 | -22.26311 | 150.18787 | 36042 ft | 408 kts | 324° |
| 2026-05-04 07:15 | -22.21439 | 150.15646 | 36046 ft | 408 kts | 323° |
| 2026-05-04 07:16 | -22.16600 | 150.12449 | 36053 ft | 408 kts | 323° |
| 2026-05-04 07:16 | -22.11761 | 150.09260 | 36054 ft | 408 kts | 323° |
| 2026-05-04 07:17 | -22.06833 | 150.06037 | 36039 ft | 421 kts | 323° |
| 2026-05-04 07:17 | -22.01798 | 150.02751 | 36038 ft | 427 kts | 323° |
| 2026-05-04 07:18 | -21.96697 | 149.99430 | 36039 ft | 429 kts | 323° |
| 2026-05-04 07:18 | -21.91577 | 149.96105 | 36038 ft | 430 kts | 323° |
| 2026-05-04 07:19 | -21.86455 | 149.92784 | 36039 ft | 430 kts | 323° |
| 2026-05-04 07:19 | -21.81335 | 149.89449 | 35852 ft | 431 kts | 323° |
| 2026-05-04 07:20 | -21.78770 | 149.87777 | 34911 ft | 429 kts | 324° |
| 2026-05-04 07:20 | -21.76207 | 149.86108 | 34409 ft | 433 kts | 324° |
| 2026-05-04 07:20 | -21.73618 | 149.84424 | 33902 ft | 437 kts | 325° |
| 2026-05-04 07:20 | -21.71004 | 149.82729 | 33410 ft | 439 kts | 325° |
| 2026-05-04 07:22 | -21.52420 | 149.70713 | 29790 ft | 452 kts | 326° |
| 2026-05-04 07:22 | -21.49718 | 149.68969 | 29272 ft | 454 kts | 326° |
| 2026-05-04 07:23 | -21.47008 | 149.67217 | 28760 ft | 456 kts | 326° |
| 2026-05-04 07:23 | -21.44286 | 149.65456 | 28253 ft | 458 kts | 326° |
| 2026-05-04 07:23 | -21.41553 | 149.63688 | 27756 ft | 460 kts | 326° |
| 2026-05-04 07:23 | -21.38808 | 149.61915 | 27266 ft | 462 kts | 326° |
| 2026-05-04 07:24 | -21.36049 | 149.60141 | 26777 ft | 463 kts | 326° |
| 2026-05-04 07:24 | -21.33282 | 149.58365 | 26283 ft | 463 kts | 327° |
| 2026-05-04 07:24 | -21.30526 | 149.56595 | 25799 ft | 460 kts | 327° |
| 2026-05-04 07:24 | -21.27784 | 149.54831 | 25307 ft | 458 kts | 327° |
| 2026-05-04 07:25 | -21.25054 | 149.53074 | 24819 ft | 456 kts | 327° |
| 2026-05-04 07:26 | -21.06438 | 149.41104 | 21174 ft | 434 kts | 327° |
| 2026-05-04 07:27 | -21.03858 | 149.39447 | 20640 ft | 431 kts | 327° |
| 2026-05-04 07:27 | -21.01298 | 149.37805 | 20120 ft | 428 kts | 327° |
| 2026-05-04 07:27 | -20.98749 | 149.36170 | 19605 ft | 425 kts | 327° |
| 2026-05-04 07:27 | -20.96253 | 149.34569 | 19082 ft | 422 kts | 328° |
| 2026-05-04 07:28 | -20.93711 | 149.32941 | 18563 ft | 419 kts | 328° |
| 2026-05-04 07:28 | -20.91221 | 149.31347 | 18010 ft | 415 kts | 328° |
| 2026-05-04 07:28 | -20.88750 | 149.29766 | 17488 ft | 413 kts | 328° |
| 2026-05-04 07:28 | -20.86289 | 149.28191 | 16974 ft | 411 kts | 328° |
| 2026-05-04 07:29 | -20.83869 | 149.26642 | 16473 ft | 409 kts | 328° |
| 2026-05-04 07:29 | -20.81436 | 149.25087 | 15966 ft | 407 kts | 328° |
| 2026-05-04 07:29 | -20.79005 | 149.23535 | 15458 ft | 405 kts | 328° |
| 2026-05-04 07:29 | -20.76591 | 149.21995 | 14954 ft | 403 kts | 328° |
| 2026-05-04 07:30 | -20.74187 | 149.20460 | 14453 ft | 401 kts | 328° |
| 2026-05-04 07:30 | -20.71797 | 149.18935 | 13953 ft | 399 kts | 328° |
| 2026-05-04 07:30 | -20.69420 | 149.17418 | 13415 ft | 397 kts | 328° |
| 2026-05-04 07:30 | -20.67052 | 149.15908 | 12918 ft | 394 kts | 328° |
| 2026-05-04 07:31 | -20.64699 | 149.14409 | 12434 ft | 393 kts | 328° |
| 2026-05-04 07:31 | -20.62361 | 149.12918 | 11945 ft | 389 kts | 329° |
| 2026-05-04 07:33 | -20.46173 | 149.02615 | 8305 ft | 389 kts | 329° |
| 2026-05-04 07:33 | -20.43860 | 149.01145 | 7645 ft | 380 kts | 329° |
| 2026-05-04 07:33 | -20.42395 | 149.00215 | 7487 ft | 360 kts | 329° |
| 2026-05-04 07:33 | -20.40329 | 148.98907 | 7344 ft | 332 kts | 329° |
| 2026-05-04 07:34 | -20.38417 | 148.97694 | 7204 ft | 309 kts | 329° |
| 2026-05-04 07:34 | -20.35908 | 148.96328 | 6436 ft | 303 kts | 344° |
| 2026-05-04 07:34 | -20.34536 | 148.96049 | 5899 ft | 304 kts | 358° |
| 2026-05-04 07:34 | -20.32437 | 148.96244 | 5169 ft | 302 kts | 16° |
| 2026-05-04 07:35 | -20.30448 | 148.96760 | 4901 ft | 285 kts | 15° |
| 2026-05-04 07:35 | -20.28574 | 148.97223 | 4763 ft | 267 kts | 15° |
| 2026-05-04 07:35 | -20.26820 | 148.97611 | 4606 ft | 250 kts | 7° |
| 2026-05-04 07:35 | -20.25087 | 148.97431 | 4237 ft | 256 kts | 342° |
| 2026-05-04 07:36 | -20.23572 | 148.96478 | 3879 ft | 252 kts | 316° |
| 2026-05-04 07:36 | -20.22568 | 148.94964 | 3522 ft | 252 kts | 291° |
| 2026-05-04 07:38 | -20.28057 | 148.89147 | 1679 ft | 151 kts | 153° |
| 2026-05-04 07:38 | -20.28930 | 148.89694 | 1491 ft | 141 kts | 140° |
| 2026-05-04 07:38 | -20.29670 | 148.90302 | 1355 ft | 134 kts | 140° |
| 2026-05-04 07:38 | -20.30405 | 148.90899 | 1180 ft | 132 kts | 140° |
| 2026-05-04 07:39 | -20.31141 | 148.91472 | 978 ft | 130 kts | 140° |
| 2026-05-04 07:39 | -20.31864 | 148.92049 | 819 ft | 129 kts | 141° |
| 2026-05-04 07:39 | -20.32576 | 148.92633 | 636 ft | 134 kts | 144° |
| 2026-05-04 07:39 | -20.33311 | 148.93213 | 454 ft | 130 kts | 144° |
| 2026-05-04 07:40 | -20.34028 | 148.93783 | 306 ft | 128 kts | 143° |
| 2026-05-04 07:40 | -20.34734 | 148.94357 | 145 ft | 128 kts | 143° |
| 2026-05-04 07:40 | -20.35439 | 148.94922 | 30 ft | 119 kts | 143° |
| 2026-05-04 07:40 | -20.35924 | 148.95306 | 21 ft | 45 kts | 143° |
| 2026-05-04 07:41 | -20.35992 | 148.95355 | 22 ft | 1 kts | 180° |
| 2026-05-04 07:41 | -20.35972 | 148.95336 | 24 ft | 12 kts | 340° |
| 2026-05-04 07:41 | -20.35836 | 148.95236 | 23 ft | 34 kts | 324° |
| 2026-05-04 07:41 | -20.35633 | 148.95075 | 23 ft | 37 kts | 323° |
| 2026-05-04 07:42 | -20.35468 | 148.94941 | 26 ft | 17 kts | 323° |
| 2026-05-04 07:42 | -20.35381 | 148.94974 | 20 ft | 13 kts | 51° |
| 2026-05-04 07:42 | -20.35311 | 148.94985 | 20 ft | 12 kts | 332° |
| 2026-05-04 07:42 | -20.35252 | 148.94945 | 20 ft | 2 kts | 2° |
| 2026-05-04 07:43 | -20.35229 | 148.94934 | 20 ft | 5 kts | 296° |
| 2026-05-04 07:43 | -20.35234 | 148.94915 | 20 ft | 0 kts | 239° |
| 2026-05-04 07:43 | -20.35235 | 148.94913 | 20 ft | 0 kts | 242° |